sensor_id;sensor_type;location;lat;lon;timestamp;pressure;altitude;pressure_sealevel;temperature;humidity
3590;BME280;1809;48.470;9.226;2024-01-15T00:00:11;-16138.84;;;-1.08;100.00
3590;BME280;1809;48.470;9.226;2024-01-15T00:02:36;-16140.25;;;-1.02;100.00
3590;BME280;1809;48.470;9.226;2024-01-15T00:05:02;-16141.66;;;-0.97;100.00
3590;BME280;1809;48.470;9.226;2024-01-15T00:07:27;-16140.66;;;-1.01;100.00
3590;BME280;1809;48.470;9.226;2024-01-15T00:09:52;-16142.78;;;-0.93;100.00
3590;BME280;1809;48.470;9.226;2024-01-15T00:12:18;-16144.75;;;-0.86;100.00
3590;BME280;1809;48.470;9.226;2024-01-15T00:14:43;-16145.88;;;-0.82;100.00
3590;BME280;1809;48.470;9.226;2024-01-15T00:17:08;-16145.03;;;-0.85;100.00
3590;BME280;1809;48.470;9.226;2024-01-15T00:19:34;-16148.56;;;-0.73;100.00
3590;BME280;1809;48.470;9.226;2024-01-15T00:21:59;-16147.16;;;-0.78;100.00
3590;BME280;1809;48.470;9.226;2024-01-15T00:24:24;-16150.66;;;-0.65;100.00
3590;BME280;1809;48.470;9.226;2024-01-15T00:26:50;-16149.56;;;-0.69;100.00
3590;BME280;1809;48.470;9.226;2024-01-15T00:29:15;-16146.88;;;-0.79;100.00
3590;BME280;1809;48.470;9.226;2024-01-15T00:31:41;-16149.81;;;-0.68;100.00
3590;BME280;1809;48.470;9.226;2024-01-15T00:34:06;-16152.38;;;-0.59;100.00
3590;BME280;1809;48.470;9.226;2024-01-15T00:36:31;-16150.97;;;-0.64;100.00
3590;BME280;1809;48.470;9.226;2024-01-15T00:38:56;-16149.81;;;-0.68;100.00
3590;BME280;1809;48.470;9.226;2024-01-15T00:41:22;-16150.53;;;-0.66;100.00
3590;BME280;1809;48.470;9.226;2024-01-15T00:43:48;-16151.94;;;-0.61;100.00
3590;BME280;1809;48.470;9.226;2024-01-15T00:46:16;-16152.94;;;-0.57;100.00
3590;BME280;1809;48.470;9.226;2024-01-15T00:48:41;-16150.81;;;-0.65;100.00
3590;BME280;1809;48.470;9.226;2024-01-15T00:51:07;-16149.56;;;-0.69;100.00
3590;BME280;1809;48.470;9.226;2024-01-15T00:53:32;-16150.09;;;-0.67;100.00
3590;BME280;1809;48.470;9.226;2024-01-15T00:55:58;-16151.81;;;-0.61;100.00
3590;BME280;1809;48.470;9.226;2024-01-15T00:58:23;-16152.22;;;-0.60;100.00
3590;BME280;1809;48.470;9.226;2024-01-15T01:00:48;-16154.06;;;-0.53;100.00
3590;BME280;1809;48.470;9.226;2024-01-15T01:03:14;-16153.78;;;-0.54;100.00
3590;BME280;1809;48.470;9.226;2024-01-15T01:05:39;-16152.94;;;-0.57;100.00
3590;BME280;1809;48.470;9.226;2024-01-15T01:08:04;-16152.38;;;-0.59;100.00
3590;BME280;1809;48.470;9.226;2024-01-15T01:10:30;-16152.38;;;-0.59;100.00
3590;BME280;1809;48.470;9.226;2024-01-15T01:12:55;-16151.81;;;-0.61;100.00
3590;BME280;1809;48.470;9.226;2024-01-15T01:15:21;-16153.06;;;-0.57;100.00
3590;BME280;1809;48.470;9.226;2024-01-15T01:17:46;-16150.97;;;-0.64;100.00
3590;BME280;1809;48.470;9.226;2024-01-15T01:20:12;-16153.63;;;-0.55;100.00
3590;BME280;1809;48.470;9.226;2024-01-15T01:22:37;-16152.50;;;-0.59;100.00
3590;BME280;1809;48.470;9.226;2024-01-15T01:25:02;-16152.94;;;-0.57;100.00
3590;BME280;1809;48.470;9.226;2024-01-15T01:27:28;-16154.47;;;-0.51;100.00
3590;BME280;1809;48.470;9.226;2024-01-15T01:29:54;-16155.47;;;-0.48;100.00
3590;BME280;1809;48.470;9.226;2024-01-15T01:32:19;-16155.03;;;-0.49;100.00
3590;BME280;1809;48.470;9.226;2024-01-15T01:34:45;-16156.16;;;-0.45;100.00
3590;BME280;1809;48.470;9.226;2024-01-15T01:37:11;-16157.16;;;-0.42;100.00
3590;BME280;1809;48.470;9.226;2024-01-15T01:39:40;-16156.59;;;-0.44;100.00
3590;BME280;1809;48.470;9.226;2024-01-15T01:42:05;-16156.03;;;-0.46;100.00
3590;BME280;1809;48.470;9.226;2024-01-15T01:44:31;-16153.34;;;-0.56;100.00
3590;BME280;1809;48.470;9.226;2024-01-15T01:46:58;-16154.34;;;-0.52;100.00
3590;BME280;1809;48.470;9.226;2024-01-15T01:49:24;-16155.19;;;-0.49;100.00
3590;BME280;1809;48.470;9.226;2024-01-15T01:51:50;-16153.50;;;-0.55;100.00
3590;BME280;1809;48.470;9.226;2024-01-15T01:54:16;-16155.19;;;-0.49;100.00
3590;BME280;1809;48.470;9.226;2024-01-15T01:56:42;-16155.19;;;-0.49;100.00
3590;BME280;1809;48.470;9.226;2024-01-15T01:59:09;-16154.63;;;-0.51;100.00
3590;BME280;1809;48.470;9.226;2024-01-15T02:01:36;-16154.19;;;-0.52;100.00
3590;BME280;1809;48.470;9.226;2024-01-15T02:04:03;-16154.47;;;-0.51;100.00
3590;BME280;1809;48.470;9.226;2024-01-15T02:06:28;-16154.06;;;-0.53;100.00
3590;BME280;1809;48.470;9.226;2024-01-15T02:08:55;-16155.88;;;-0.46;100.00
3590;BME280;1809;48.470;9.226;2024-01-15T02:11:20;-16155.19;;;-0.49;100.00
3590;BME280;1809;48.470;9.226;2024-01-15T02:13:46;-16156.88;;;-0.43;100.00
3590;BME280;1809;48.470;9.226;2024-01-15T02:16:12;-16156.59;;;-0.44;100.00
3590;BME280;1809;48.470;9.226;2024-01-15T02:18:42;-16154.06;;;-0.53;100.00
3590;BME280;1809;48.470;9.226;2024-01-15T02:21:08;-16154.75;;;-0.50;100.00
3590;BME280;1809;48.470;9.226;2024-01-15T02:23:33;-16154.91;;;-0.50;100.00
3590;BME280;1809;48.470;9.226;2024-01-15T02:25:58;-16155.19;;;-0.49;100.00
3590;BME280;1809;48.470;9.226;2024-01-15T02:28:24;-16153.22;;;-0.56;100.00
3590;BME280;1809;48.470;9.226;2024-01-15T02:30:49;-16152.22;;;-0.60;100.00
3590;BME280;1809;48.470;9.226;2024-01-15T02:33:14;-16154.91;;;-0.50;100.00
3590;BME280;1809;48.470;9.226;2024-01-15T02:35:40;-16155.19;;;-0.49;100.00
3590;BME280;1809;48.470;9.226;2024-01-15T02:38:06;-16155.31;;;-0.48;100.00
3590;BME280;1809;48.470;9.226;2024-01-15T02:40:32;-16155.75;;;-0.47;100.00
3590;BME280;1809;48.470;9.226;2024-01-15T02:42:57;-16155.47;;;-0.48;100.00
3590;BME280;1809;48.470;9.226;2024-01-15T02:45:23;-16154.06;;;-0.53;100.00
3590;BME280;1809;48.470;9.226;2024-01-15T02:47:49;-16154.63;;;-0.51;100.00
3590;BME280;1809;48.470;9.226;2024-01-15T02:50:14;-16153.91;;;-0.53;100.00
3590;BME280;1809;48.470;9.226;2024-01-15T02:52:40;-16154.34;;;-0.52;100.00
3590;BME280;1809;48.470;9.226;2024-01-15T02:55:06;-16150.97;;;-0.64;100.00
3590;BME280;1809;48.470;9.226;2024-01-15T02:57:31;-16152.66;;;-0.58;100.00
3590;BME280;1809;48.470;9.226;2024-01-15T02:59:57;-16152.94;;;-0.57;100.00
3590;BME280;1809;48.470;9.226;2024-01-15T03:02:22;-16152.94;;;-0.57;100.00
3590;BME280;1809;48.470;9.226;2024-01-15T03:04:47;-16150.09;;;-0.67;100.00
3590;BME280;1809;48.470;9.226;2024-01-15T03:07:13;-16154.06;;;-0.53;100.00
3590;BME280;1809;48.470;9.226;2024-01-15T03:09:38;-16154.34;;;-0.52;100.00
3590;BME280;1809;48.470;9.226;2024-01-15T03:12:04;-16156.88;;;-0.43;100.00
3590;BME280;1809;48.470;9.226;2024-01-15T03:14:29;-16157.88;;;-0.39;100.00
3590;BME280;1809;48.470;9.226;2024-01-15T03:16:54;-16157.59;;;-0.40;100.00
3590;BME280;1809;48.470;9.226;2024-01-15T03:19:20;-16158.72;;;-0.36;100.00
3590;BME280;1809;48.470;9.226;2024-01-15T03:21:46;-16160.25;;;-0.31;100.00
3590;BME280;1809;48.470;9.226;2024-01-15T03:24:11;-16157.31;;;-0.41;100.00
3590;BME280;1809;48.470;9.226;2024-01-15T03:26:36;-16158.84;;;-0.36;100.00
3590;BME280;1809;48.470;9.226;2024-01-15T03:29:02;-16158.44;;;-0.37;100.00
3590;BME280;1809;48.470;9.226;2024-01-15T03:31:27;-16158.84;;;-0.36;100.00
3590;BME280;1809;48.470;9.226;2024-01-15T03:33:52;-16159.56;;;-0.33;100.00
3590;BME280;1809;48.470;9.226;2024-01-15T03:36:18;-16158.28;;;-0.38;100.00
3590;BME280;1809;48.470;9.226;2024-01-15T03:38:43;-16159.97;;;-0.32;100.00
3590;BME280;1809;48.470;9.226;2024-01-15T03:41:09;-16159.13;;;-0.35;100.00
3590;BME280;1809;48.470;9.226;2024-01-15T03:43:34;-16159.56;;;-0.33;100.00
3590;BME280;1809;48.470;9.226;2024-01-15T03:45:59;-16160.25;;;-0.31;100.00
3590;BME280;1809;48.470;9.226;2024-01-15T03:48:25;-16160.25;;;-0.31;100.00
3590;BME280;1809;48.470;9.226;2024-01-15T03:50:50;-16159.97;;;-0.32;100.00
3590;BME280;1809;48.470;9.226;2024-01-15T03:53:15;-16159.41;;;-0.34;100.00
3590;BME280;1809;48.470;9.226;2024-01-15T03:55:42;-16159.97;;;-0.32;100.00
3590;BME280;1809;48.470;9.226;2024-01-15T03:58:07;-16159.97;;;-0.32;100.00
3590;BME280;1809;48.470;9.226;2024-01-15T04:00:32;-16161.09;;;-0.28;100.00
3590;BME280;1809;48.470;9.226;2024-01-15T04:02:57;-16160.81;;;-0.29;100.00
3590;BME280;1809;48.470;9.226;2024-01-15T04:05:23;-16161.66;;;-0.26;100.00
3590;BME280;1809;48.470;9.226;2024-01-15T04:07:48;-16158.44;;;-0.37;100.00
3590;BME280;1809;48.470;9.226;2024-01-15T04:10:13;-16159.97;;;-0.32;100.00
3590;BME280;1809;48.470;9.226;2024-01-15T04:12:39;-16157.72;;;-0.40;100.00
3590;BME280;1809;48.470;9.226;2024-01-15T04:15:04;-16158.28;;;-0.38;100.00
3590;BME280;1809;48.470;9.226;2024-01-15T04:17:30;-16158.00;;;-0.39;100.00
3590;BME280;1809;48.470;9.226;2024-01-15T04:19:55;-16158.28;;;-0.38;100.00
3590;BME280;1809;48.470;9.226;2024-01-15T04:22:21;-16159.69;;;-0.33;100.00
3590;BME280;1809;48.470;9.226;2024-01-15T04:24:46;-16160.41;;;-0.30;100.00
3590;BME280;1809;48.470;9.226;2024-01-15T04:27:11;-16159.41;;;-0.34;100.00
3590;BME280;1809;48.470;9.226;2024-01-15T04:29:39;-16158.00;;;-0.39;100.00
3590;BME280;1809;48.470;9.226;2024-01-15T04:32:05;-16158.56;;;-0.37;100.00
3590;BME280;1809;48.470;9.226;2024-01-15T04:34:30;-16160.13;;;-0.31;100.00
3590;BME280;1809;48.470;9.226;2024-01-15T04:36:56;-16159.00;;;-0.35;100.00
3590;BME280;1809;48.470;9.226;2024-01-15T04:39:21;-16159.84;;;-0.32;100.00
3590;BME280;1809;48.470;9.226;2024-01-15T04:41:47;-16157.16;;;-0.42;100.00
3590;BME280;1809;48.470;9.226;2024-01-15T04:44:12;-16157.72;;;-0.40;100.00
3590;BME280;1809;48.470;9.226;2024-01-15T04:46:38;-16157.16;;;-0.42;100.00
3590;BME280;1809;48.470;9.226;2024-01-15T04:49:03;-16155.59;;;-0.47;100.00
3590;BME280;1809;48.470;9.226;2024-01-15T04:51:28;-16153.34;;;-0.56;100.00
3590;BME280;1809;48.470;9.226;2024-01-15T04:53:54;-16154.47;;;-0.51;100.00
3590;BME280;1809;48.470;9.226;2024-01-15T04:56:19;-16154.47;;;-0.51;100.00
3590;BME280;1809;48.470;9.226;2024-01-15T04:58:44;-16152.22;;;-0.60;100.00
3590;BME280;1809;48.470;9.226;2024-01-15T05:01:10;-16151.09;;;-0.64;100.00
3590;BME280;1809;48.470;9.226;2024-01-15T05:03:35;-16153.34;;;-0.56;100.00
3590;BME280;1809;48.470;9.226;2024-01-15T05:06:01;-16152.09;;;-0.60;100.00
3590;BME280;1809;48.470;9.226;2024-01-15T05:08:26;-16150.41;;;-0.66;100.00
3590;BME280;1809;48.470;9.226;2024-01-15T05:10:51;-16154.91;;;-0.50;100.00
3590;BME280;1809;48.470;9.226;2024-01-15T05:13:17;-16152.94;;;-0.57;100.00
3590;BME280;1809;48.470;9.226;2024-01-15T05:15:42;-16153.78;;;-0.54;100.00
3590;BME280;1809;48.470;9.226;2024-01-15T05:18:07;-16153.50;;;-0.55;100.00
3590;BME280;1809;48.470;9.226;2024-01-15T05:20:33;-16152.09;;;-0.60;100.00
3590;BME280;1809;48.470;9.226;2024-01-15T05:22:58;-15613.75;;;-0.53;100.00
3590;BME280;1809;48.470;9.226;2024-01-15T05:25:23;-13647.06;;;-0.54;100.00
3590;BME280;1809;48.470;9.226;2024-01-15T05:27:49;-10945.41;;;-0.49;100.00
3590;BME280;1809;48.470;9.226;2024-01-15T05:30:14;-10217.19;;;-0.53;100.00
3590;BME280;1809;48.470;9.226;2024-01-15T05:32:40;-8259.22;;;-0.60;100.00
3590;BME280;1809;48.470;9.226;2024-01-15T05:35:05;-3455.56;;;-0.55;100.00
3590;BME280;1809;48.470;9.226;2024-01-15T05:37:31;-844.13;;;-0.54;100.00
3590;BME280;1809;48.470;9.226;2024-01-15T05:39:56;1769.34;;;-0.65;100.00
3590;BME280;1809;48.470;9.226;2024-01-15T05:42:21;6020.84;;;-0.56;100.00
3590;BME280;1809;48.470;9.226;2024-01-15T05:44:47;6674.78;;;-0.63;100.00
3590;BME280;1809;48.470;9.226;2024-01-15T05:47:12;7329.66;;;-0.60;100.00
3590;BME280;1809;48.470;9.226;2024-01-15T05:49:37;6347.94;;;-0.58;100.00
3590;BME280;1809;48.470;9.226;2024-01-15T05:52:04;4385.03;;;-0.57;100.00
3590;BME280;1809;48.470;9.226;2024-01-15T05:54:29;1115.88;;;-0.54;100.00
3590;BME280;1809;48.470;9.226;2024-01-15T05:56:54;-3782.00;;;-0.53;100.00
3590;BME280;1809;48.470;9.226;2024-01-15T05:59:19;-8433.63;;;-0.51;100.00
3590;BME280;1809;48.470;9.226;2024-01-15T06:01:45;-14769.03;;;-0.48;100.00
3590;BME280;1809;48.470;9.226;2024-01-15T06:04:10;-16155.19;;;-0.49;100.00
3590;BME280;1809;48.470;9.226;2024-01-15T06:06:35;-16155.88;;;-0.46;100.00
3590;BME280;1809;48.470;9.226;2024-01-15T06:09:01;-16156.59;;;-0.44;100.00
3590;BME280;1809;48.470;9.226;2024-01-15T06:11:31;-16156.88;;;-0.43;100.00
3590;BME280;1809;48.470;9.226;2024-01-15T06:13:56;-16157.88;;;-0.39;100.00
3590;BME280;1809;48.470;9.226;2024-01-15T06:16:23;-16156.88;;;-0.43;100.00
3590;BME280;1809;48.470;9.226;2024-01-15T06:18:49;-16157.16;;;-0.42;100.00
3590;BME280;1809;48.470;9.226;2024-01-15T06:21:15;-16156.72;;;-0.43;100.00
3590;BME280;1809;48.470;9.226;2024-01-15T06:23:40;-16157.16;;;-0.42;100.00
3590;BME280;1809;48.470;9.226;2024-01-15T06:26:05;-16156.72;;;-0.43;100.00
3590;BME280;1809;48.470;9.226;2024-01-15T06:28:31;-16157.59;;;-0.40;100.00
3590;BME280;1809;48.470;9.226;2024-01-15T06:30:57;-16157.44;;;-0.41;100.00
3590;BME280;1809;48.470;9.226;2024-01-15T06:33:23;-16157.88;;;-0.39;100.00
3590;BME280;1809;48.470;9.226;2024-01-15T06:35:48;-16157.88;;;-0.39;100.00
3590;BME280;1809;48.470;9.226;2024-01-15T06:38:14;-16157.72;;;-0.40;100.00
3590;BME280;1809;48.470;9.226;2024-01-15T06:40:40;-16157.44;;;-0.41;100.00
3590;BME280;1809;48.470;9.226;2024-01-15T06:43:13;-16157.16;;;-0.42;100.00
3590;BME280;1809;48.470;9.226;2024-01-15T06:45:39;-16158.16;;;-0.38;100.00
3590;BME280;1809;48.470;9.226;2024-01-15T06:48:04;-16159.97;;;-0.32;100.00
3590;BME280;1809;48.470;9.226;2024-01-15T06:50:30;-16158.16;;;-0.38;100.00
3590;BME280;1809;48.470;9.226;2024-01-15T06:52:55;-16160.97;;;-0.28;100.00
3590;BME280;1809;48.470;9.226;2024-01-15T06:55:21;-16158.84;;;-0.36;100.00
3590;BME280;1809;48.470;9.226;2024-01-15T06:57:46;-16160.53;;;-0.30;100.00
3590;BME280;1809;48.470;9.226;2024-01-15T07:00:14;-16160.53;;;-0.30;100.00
3590;BME280;1809;48.470;9.226;2024-01-15T07:02:40;-16161.09;;;-0.28;100.00
3590;BME280;1809;48.470;9.226;2024-01-15T07:05:05;-16160.41;;;-0.30;100.00
3590;BME280;1809;48.470;9.226;2024-01-15T07:07:31;-16160.81;;;-0.29;100.00
3590;BME280;1809;48.470;9.226;2024-01-15T07:09:56;-16158.84;;;-0.36;100.00
3590;BME280;1809;48.470;9.226;2024-01-15T07:12:22;-16162.09;;;-0.24;100.00
3590;BME280;1809;48.470;9.226;2024-01-15T07:14:47;-16160.53;;;-0.30;100.00
3590;BME280;1809;48.470;9.226;2024-01-15T07:17:13;-16160.81;;;-0.29;100.00
3590;BME280;1809;48.470;9.226;2024-01-15T07:19:38;-16163.22;;;-0.20;100.00
3590;BME280;1809;48.470;9.226;2024-01-15T07:22:04;-16162.22;;;-0.24;100.00
3590;BME280;1809;48.470;9.226;2024-01-15T07:24:29;-16162.78;;;-0.22;100.00
3590;BME280;1809;48.470;9.226;2024-01-15T07:26:55;-16166.03;;;-0.10;100.00
3590;BME280;1809;48.470;9.226;2024-01-15T07:29:20;-16167.03;;;-0.07;100.00
3590;BME280;1809;48.470;9.226;2024-01-15T07:31:49;-16166.47;;;-0.09;100.00
3590;BME280;1809;48.470;9.226;2024-01-15T07:34:15;-16168.16;;;-0.03;100.00
3590;BME280;1809;48.470;9.226;2024-01-15T07:36:40;-16167.59;;;-0.05;100.00
3590;BME280;1809;48.470;9.226;2024-01-15T07:39:06;-16169.13;;;0.01;100.00
3590;BME280;1809;48.470;9.226;2024-01-15T07:41:31;-16172.66;;;0.14;100.00
3590;BME280;1809;48.470;9.226;2024-01-15T07:43:57;-16173.78;;;0.18;100.00
3590;BME280;1809;48.470;9.226;2024-01-15T07:46:22;-16176.34;;;0.27;100.00
3590;BME280;1809;48.470;9.226;2024-01-15T07:48:47;-16178.03;;;0.33;100.00
3590;BME280;1809;48.470;9.226;2024-01-15T07:51:13;-16180.84;;;0.43;100.00
3590;BME280;1809;48.470;9.226;2024-01-15T07:53:38;-16183.94;;;0.54;100.00
3590;BME280;1809;48.470;9.226;2024-01-15T07:56:03;-16184.94;;;0.58;100.00
3590;BME280;1809;48.470;9.226;2024-01-15T07:58:29;-16184.50;;;0.56;100.00
3590;BME280;1809;48.470;9.226;2024-01-15T08:00:54;-16185.78;;;0.61;100.00
3590;BME280;1809;48.470;9.226;2024-01-15T08:03:19;-16187.03;;;0.65;100.00
3590;BME280;1809;48.470;9.226;2024-01-15T08:05:44;-16188.16;;;0.69;100.00
3590;BME280;1809;48.470;9.226;2024-01-15T08:08:10;-16188.44;;;0.70;100.00
3590;BME280;1809;48.470;9.226;2024-01-15T08:10:35;-16190.13;;;0.76;100.00
3590;BME280;1809;48.470;9.226;2024-01-15T08:13:00;-16190.84;;;0.79;100.00
3590;BME280;1809;48.470;9.226;2024-01-15T08:15:26;-16192.97;;;0.86;100.00
3590;BME280;1809;48.470;9.226;2024-01-15T08:17:51;-16192.69;;;0.85;100.00
3590;BME280;1809;48.470;9.226;2024-01-15T08:20:16;-16193.81;;;0.89;100.00
3590;BME280;1809;48.470;9.226;2024-01-15T08:22:42;-16194.09;;;0.90;100.00
3590;BME280;1809;48.470;9.226;2024-01-15T08:25:08;-16194.66;;;0.92;100.00
3590;BME280;1809;48.470;9.226;2024-01-15T08:27:34;-16195.78;;;0.96;100.00
3590;BME280;1809;48.470;9.226;2024-01-15T08:29:59;-16198.31;;;1.05;100.00
3590;BME280;1809;48.470;9.226;2024-01-15T08:32:24;-16201.56;;;1.17;100.00
3590;BME280;1809;48.470;9.226;2024-01-15T08:34:50;-16201.69;;;1.18;100.00
3590;BME280;1809;48.470;9.226;2024-01-15T08:37:17;-16200.44;;;1.13;100.00
3590;BME280;1809;48.470;9.226;2024-01-15T08:39:43;-16199.72;;;1.11;100.00
3590;BME280;1809;48.470;9.226;2024-01-15T08:42:08;-16200.72;;;1.14;100.00
3590;BME280;1809;48.470;9.226;2024-01-15T08:44:33;-16200.44;;;1.13;100.00
3590;BME280;1809;48.470;9.226;2024-01-15T08:46:59;-16200.56;;;1.14;100.00
3590;BME280;1809;48.470;9.226;2024-01-15T08:49:24;-16202.81;;;1.22;100.00
3590;BME280;1809;48.470;9.226;2024-01-15T08:51:49;-16203.38;;;1.24;100.00
3590;BME280;1809;48.470;9.226;2024-01-15T08:54:15;-16203.94;;;1.26;100.00
3590;BME280;1809;48.470;9.226;2024-01-15T08:56:40;-16203.66;;;1.25;100.00
3590;BME280;1809;48.470;9.226;2024-01-15T08:59:06;-16202.81;;;1.22;100.00
3590;BME280;1809;48.470;9.226;2024-01-15T09:01:31;-16203.09;;;1.23;100.00
3590;BME280;1809;48.470;9.226;2024-01-15T09:03:57;-16205.09;;;1.30;100.00
3590;BME280;1809;48.470;9.226;2024-01-15T09:06:23;-16205.22;;;1.30;100.00
3590;BME280;1809;48.470;9.226;2024-01-15T09:08:48;-16207.75;;;1.39;100.00
3590;BME280;1809;48.470;9.226;2024-01-15T09:11:14;-16208.88;;;1.43;100.00
3590;BME280;1809;48.470;9.226;2024-01-15T09:13:39;-16208.19;;;1.41;100.00
3590;BME280;1809;48.470;9.226;2024-01-15T09:16:05;-16210.00;;;1.47;100.00
3590;BME280;1809;48.470;9.226;2024-01-15T09:18:30;-16211.00;;;1.51;100.00
3590;BME280;1809;48.470;9.226;2024-01-15T09:20:56;-16212.69;;;1.57;100.00
3590;BME280;1809;48.470;9.226;2024-01-15T09:23:22;-16213.81;;;1.61;100.00
3590;BME280;1809;48.470;9.226;2024-01-15T09:25:47;-16213.53;;;1.60;100.00
3590;BME280;1809;48.470;9.226;2024-01-15T09:28:13;-16215.38;;;1.67;100.00
3590;BME280;1809;48.470;9.226;2024-01-15T09:30:39;-16212.13;;;1.55;100.00
3590;BME280;1809;48.470;9.226;2024-01-15T09:33:04;-16212.97;;;1.58;100.00
3590;BME280;1809;48.470;9.226;2024-01-15T09:35:30;-16215.22;;;1.66;100.00
3590;BME280;1809;48.470;9.226;2024-01-15T09:37:55;-16216.63;;;1.71;100.00
3590;BME280;1809;48.470;9.226;2024-01-15T09:40:21;-16217.75;;;1.75;100.00
3590;BME280;1809;48.470;9.226;2024-01-15T09:42:47;-16219.16;;;1.80;100.00
3590;BME280;1809;48.470;9.226;2024-01-15T09:45:13;-16219.88;;;1.83;100.00
3590;BME280;1809;48.470;9.226;2024-01-15T09:47:38;-16220.00;;;1.83;100.00
3590;BME280;1809;48.470;9.226;2024-01-15T09:50:05;-16219.44;;;1.81;100.00
3590;BME280;1809;48.470;9.226;2024-01-15T09:52:31;-16222.28;;;1.91;100.00
3590;BME280;1809;48.470;9.226;2024-01-15T09:54:58;-16224.81;;;2.00;100.00
3590;BME280;1809;48.470;9.226;2024-01-15T09:57:24;-16227.63;;;2.10;100.00
3590;BME280;1809;48.470;9.226;2024-01-15T09:59:51;-16228.75;;;2.14;100.00
3590;BME280;1809;48.470;9.226;2024-01-15T10:02:17;-16230.44;;;2.21;100.00
3590;BME280;1809;48.470;9.226;2024-01-15T10:04:44;-16233.81;;;2.33;100.00
3590;BME280;1809;48.470;9.226;2024-01-15T10:07:12;-16233.53;;;2.32;100.00
3590;BME280;1809;48.470;9.226;2024-01-15T10:09:40;-16232.69;;;2.29;100.00
3590;BME280;1809;48.470;9.226;2024-01-15T10:12:05;-16234.66;;;2.36;100.00
3590;BME280;1809;48.470;9.226;2024-01-15T10:14:31;-16234.66;;;2.36;100.00
3590;BME280;1809;48.470;9.226;2024-01-15T10:16:57;-16236.91;;;2.44;100.00
3590;BME280;1809;48.470;9.226;2024-01-15T10:19:23;-16237.19;;;2.45;100.00
3590;BME280;1809;48.470;9.226;2024-01-15T10:21:48;-16235.94;;;2.40;100.00
3590;BME280;1809;48.470;9.226;2024-01-15T10:24:14;-16236.34;;;2.42;100.00
3590;BME280;1809;48.470;9.226;2024-01-15T10:26:39;-16236.06;;;2.41;100.00
3590;BME280;1809;48.470;9.226;2024-01-15T10:29:04;-16232.13;;;2.27;100.00
3590;BME280;1809;48.470;9.226;2024-01-15T10:31:30;-16233.13;;;2.30;100.00
3590;BME280;1809;48.470;9.226;2024-01-15T10:34:10;-16231.00;;;2.23;100.00
3590;BME280;1809;48.470;9.226;2024-01-15T10:36:39;-16232.69;;;2.29;100.00
3590;BME280;1809;48.470;9.226;2024-01-15T10:39:06;-16231.28;;;2.24;100.00
3590;BME280;1809;48.470;9.226;2024-01-15T10:41:32;-16232.69;;;2.29;100.00
3590;BME280;1809;48.470;9.226;2024-01-15T10:43:57;-16234.81;;;2.36;100.00
3590;BME280;1809;48.470;9.226;2024-01-15T10:46:24;-16237.34;;;2.45;100.00
3590;BME280;1809;48.470;9.226;2024-01-15T10:48:51;-16240.88;;;2.58;100.00
3590;BME280;1809;48.470;9.226;2024-01-15T10:51:16;-16243.13;;;2.66;100.00
3590;BME280;1809;48.470;9.226;2024-01-15T10:53:42;-16238.59;;;2.50;100.00
3590;BME280;1809;48.470;9.226;2024-01-15T10:56:09;-16237.63;;;2.46;100.00
3590;BME280;1809;48.470;9.226;2024-01-15T10:58:36;-16237.19;;;2.45;100.00
3590;BME280;1809;48.470;9.226;2024-01-15T11:01:03;-16237.19;;;2.45;100.00
3590;BME280;1809;48.470;9.226;2024-01-15T11:03:29;-16234.66;;;2.36;100.00
3590;BME280;1809;48.470;9.226;2024-01-15T11:05:55;-16233.69;;;2.32;100.00
3590;BME280;1809;48.470;9.226;2024-01-15T11:08:20;-16232.69;;;2.29;100.00
3590;BME280;1809;48.470;9.226;2024-01-15T11:10:48;-16233.81;;;2.33;100.00
3590;BME280;1809;48.470;9.226;2024-01-15T11:13:40;-16233.81;;;2.33;100.00
3590;BME280;1809;48.470;9.226;2024-01-15T11:16:08;-16232.84;;;2.29;100.00
3590;BME280;1809;48.470;9.226;2024-01-15T11:18:40;-16236.22;;;2.41;100.00
3590;BME280;1809;48.470;9.226;2024-01-15T11:26:27;-16233.25;;;2.31;100.00
3590;BME280;1809;48.470;9.226;2024-01-15T11:28:54;-16231.84;;;2.26;100.00
3590;BME280;1809;48.470;9.226;2024-01-15T11:31:20;-16235.50;;;2.39;100.00
3590;BME280;1809;48.470;9.226;2024-01-15T11:33:49;-16240.03;;;2.55;100.00
3590;BME280;1809;48.470;9.226;2024-01-15T11:36:15;-16244.94;;;2.72;100.00
3590;BME280;1809;48.470;9.226;2024-01-15T11:38:40;-16247.06;;;2.80;100.00
3590;BME280;1809;48.470;9.226;2024-01-15T11:41:15;-16247.19;;;2.81;100.00
3590;BME280;1809;48.470;9.226;2024-01-15T11:43:41;-16247.34;;;2.81;100.00
3590;BME280;1809;48.470;9.226;2024-01-15T11:46:11;-16247.91;;;2.83;100.00
3590;BME280;1809;48.470;9.226;2024-01-15T11:48:50;-16241.13;;;2.59;100.00
3590;BME280;1809;48.470;9.226;2024-01-15T11:51:21;-16237.47;;;2.46;100.00
3590;BME280;1809;48.470;9.226;2024-01-15T11:53:48;-16232.69;;;2.29;100.00
3590;BME280;1809;48.470;9.226;2024-01-15T11:56:17;-16230.72;;;2.22;100.00
3590;BME280;1809;48.470;9.226;2024-01-15T11:58:43;-16232.00;;;2.26;100.00
3590;BME280;1809;48.470;9.226;2024-01-15T12:01:10;-16235.78;;;2.40;100.00
3590;BME280;1809;48.470;9.226;2024-01-15T12:03:35;-16235.38;;;2.38;100.00
3590;BME280;1809;48.470;9.226;2024-01-15T12:06:01;-16236.63;;;2.43;100.00
3590;BME280;1809;48.470;9.226;2024-01-15T12:08:26;-16235.78;;;2.40;100.00
3590;BME280;1809;48.470;9.226;2024-01-15T12:10:52;-16236.63;;;2.43;100.00
3590;BME280;1809;48.470;9.226;2024-01-15T12:13:18;-16237.19;;;2.45;100.00
3590;BME280;1809;48.470;9.226;2024-01-15T12:15:45;-16237.19;;;2.45;100.00
3590;BME280;1809;48.470;9.226;2024-01-15T12:18:13;-16231.28;;;2.24;100.00
3590;BME280;1809;48.470;9.226;2024-01-15T12:20:39;-16229.88;;;2.18;100.00
3590;BME280;1809;48.470;9.226;2024-01-15T12:23:05;-16226.91;;;2.08;100.00
3590;BME280;1809;48.470;9.226;2024-01-15T12:25:35;-16226.91;;;2.08;100.00
3590;BME280;1809;48.470;9.226;2024-01-15T12:28:01;-16225.22;;;2.02;100.00
3590;BME280;1809;48.470;9.226;2024-01-15T12:30:27;-16225.38;;;2.02;100.00
3590;BME280;1809;48.470;9.226;2024-01-15T12:32:52;-16226.34;;;2.06;100.00
3590;BME280;1809;48.470;9.226;2024-01-15T12:35:18;-16226.50;;;2.06;100.00
3590;BME280;1809;48.470;9.226;2024-01-15T12:37:44;-16225.78;;;2.04;100.00
3590;BME280;1809;48.470;9.226;2024-01-15T12:40:11;-16226.78;;;2.07;100.00
3590;BME280;1809;48.470;9.226;2024-01-15T12:42:37;-16230.72;;;2.22;100.00
3590;BME280;1809;48.470;9.226;2024-01-15T12:45:08;-16230.72;;;2.22;100.00
3590;BME280;1809;48.470;9.226;2024-01-15T12:47:34;-16231.44;;;2.24;100.00
3590;BME280;1809;48.470;9.226;2024-01-15T12:49:59;-16232.97;;;2.30;100.00
3590;BME280;1809;48.470;9.226;2024-01-15T12:52:28;-16232.41;;;2.28;100.00
3590;BME280;1809;48.470;9.226;2024-01-15T12:54:54;-16230.44;;;2.21;100.00
3590;BME280;1809;48.470;9.226;2024-01-15T12:57:19;-16230.44;;;2.21;100.00
3590;BME280;1809;48.470;9.226;2024-01-15T12:59:45;-16227.63;;;2.10;100.00
3590;BME280;1809;48.470;9.226;2024-01-15T13:02:11;-16222.97;;;1.94;100.00